Time;durP1;ratioP1;P1;durP2;ratioP2;P2;SDS_P1;SDS_P2;PMS_P1;PMS_P2;Temp;Humidity;BMP_temperature;BMP_pressure;BME280_temperature;BME280_humidity;BME280_pressure;Samples;Min_cycle;Max_cycle;Signal;HPM_P1;HPM_P2
2022/03/14 00:00:50;;;;;;;;;;;;;;;;;;5035338;28;19905;-52
2022/03/14 00:03:16;;;;;;;;;;;;;;;;;;5035349;28;19905;-49
2022/03/14 00:05:42;;;;;;;;;;;;;;;;;;5035561;28;19905;-49
2022/03/14 00:08:08;;;;;;;;;;;;;;;;;;5035513;28;19905;-50
2022/03/14 00:10:37;;;;;;;;;;;;;;;;;;5035162;28;19912;-50
2022/03/14 00:13:04;;;;;;;;;;;;;;;;;;5035155;28;19912;-51
2022/03/14 00:15:32;;;;;;;;;;;;;;;;;;5033782;28;20371;-48
2022/03/14 00:18:00;;;;;;;;;;;;;;;;;;5035400;28;19991;-49
2022/03/14 00:20:26;;;;;;;;;;;;;;;;;;5035292;28;20247;-50
2022/03/14 00:22:52;;;;;;;;;;;;;;;;;;5035115;28;19919;-50
2022/03/14 00:25:18;;;;;;;;;;;;;;;;;;5034926;28;19905;-48
2022/03/14 00:27:44;;;;;;;;;;;;;;;;;;5035180;28;19905;-50
2022/03/14 00:30:10;;;;;;;;;;;;;;;;;;5034879;28;19927;-49
2022/03/14 00:32:36;;;;;;;;;;;;;;;;;;5034740;28;19952;-49
2022/03/14 00:35:01;;;;;;;;;;;;;;;;;;5034862;28;20394;-49
2022/03/14 00:37:27;;;;;;;;;;;;;;;;;;5034594;28;19912;-50
2022/03/14 00:39:53;;;;;;;;;;;;;;;;;;5034635;28;19912;-49
2022/03/14 00:42:21;;;;;;;;;;;;;;;;;;5034649;28;19905;-49
2022/03/14 00:44:47;;;;;;;;;;;;;;;;;;5034313;28;19971;-50
2022/03/14 00:47:12;;;;;;;;;;;;;;;;;;5034531;28;19920;-50
2022/03/14 00:49:38;;;;;;;;;;;;;;;;;;5034675;28;19905;-50
2022/03/14 00:52:04;;;;;;;;;;;;;;;;;;5033327;28;19944;-50
2022/03/14 00:54:30;;;;;;;;;;;;;;;;;;5034197;28;20055;-49
2022/03/14 00:56:56;;;;;;;;;;;;;;;;;;5034279;28;20355;-50
2022/03/14 00:59:24;;;;;;;;;;;;;;;;;;5034417;28;19911;-53
2022/03/14 01:01:50;;;;;;;;;;;;;;;;;;5034187;28;19905;-50
2022/03/14 01:04:16;;;;;;;;;;;;;;;;;;5034208;28;19911;-51
2022/03/14 01:06:42;;;;;;;;;;;;;;;;;;5034104;28;19905;-49
2022/03/14 01:09:11;;;;;;;;;;;;;;;;;;5034076;28;19904;-50
2022/03/14 01:11:37;;;;;;;;;;;;;;;;;;5034094;28;19952;-50
2022/03/14 01:14:03;;;;;;;;;;;;;;;;;;5033953;28;20467;-50
2022/03/14 01:16:29;;;;;;;;;;;;;;;;;;5034019;28;19905;-49
2022/03/14 01:18:55;;;;;;;;;;;;;;;;;;5033903;28;19916;-51
2022/03/14 01:21:21;;;;;;;;;;;;;;;;;;5034135;28;20391;-50
2022/03/14 01:23:47;;;;;;;;;;;;;;;;;;5034089;28;20158;-50
2022/03/14 01:26:13;;;;;;;;;;;;;;;;;;5033714;28;20498;-49
2022/03/14 01:28:39;;;;;;;;;;;;;;;;;;5033843;28;19952;-51
2022/03/14 01:31:04;;;;;;;;;;;;;;;;;;5033579;28;19908;-49
2022/03/14 01:33:30;;;;;;;;;;;;;;;;;;5033593;28;19905;-49
2022/03/14 01:35:56;;;;;;;;;;;;;;;;;;5033541;28;20372;-49
2022/03/14 01:38:22;;;;;;;;;;;;;;;;;;5033595;28;19905;-53
2022/03/14 01:40:48;;;;;;;;;;;;;;;;;;5033422;28;19911;-50
2022/03/14 01:43:15;;;;;;;;;;;;;;;;;;5033419;28;20276;-50
2022/03/14 01:45:41;;;;;;;;;;;;;;;;;;5033315;28;20023;-51
2022/03/14 01:48:07;;;;;;;;;;;;;;;;;;5033653;28;19912;-50
2022/03/14 01:50:33;;;;;;;;;;;;;;;;;;5033330;28;19940;-50
2022/03/14 01:52:59;;;;;;;;;;;;;;;;;;5033289;28;19905;-49
2022/03/14 01:55:25;;;;;;;;;;;;;;;;;;5033230;28;19917;-51
2022/03/14 01:57:51;;;;;;;;;;;;;;;;;;5033421;28;19905;-49
2022/03/14 02:00:17;;;;;;;;;;;;;;;;;;5033154;28;20413;-49
2022/03/14 02:02:43;;;;;;;;;;;;;;;;;;5032771;28;19905;-49
2022/03/14 02:05:09;;;;;;;;;;;;;;;;;;5033323;28;19916;-49
2022/03/14 02:07:35;;;;;;;;;;;;;;;;;;5033037;28;19916;-50
2022/03/14 02:10:01;;;;;;;;;;;;;;;;;;5032934;28;19905;-50
2022/03/14 02:12:26;;;;;;;;;;;;;;;;;;5033109;28;20374;-53
2022/03/14 02:14:52;;;;;;;;;;;;;;;;;;5032867;28;19939;-50
2022/03/14 02:17:20;;;;;;;;;;;;;;;;;;5033187;28;20248;-49
2022/03/14 02:19:46;;;;;;;;;;;;;;;;;;5032953;28;20371;-50
2022/03/14 02:22:13;;;;;;;;;;;;;;;;;;5032838;28;19955;-50
2022/03/14 02:24:39;;;;;;;;;;;;;;;;;;5032894;28;20356;-51
2022/03/14 02:27:05;;;;;;;;;;;;;;;;;;5032824;28;19909;-51
2022/03/14 02:29:31;;;;;;;;;;;;;;;;;;5032818;28;20393;-50
2022/03/14 02:31:56;;;;;;;;;;;;;;;;;;5032818;28;19909;-56
2022/03/14 02:34:22;;;;;;;;;;;;;;;;;;5032665;28;19913;-56
2022/03/14 02:36:48;;;;;;;;;;;;;;;;;;5032665;28;20333;-56
2022/03/14 02:39:14;;;;;;;;;;;;;;;;;;5032654;28;19909;-56
2022/03/14 02:41:41;;;;;;;;;;;;;;;;;;5032631;28;20044;-56
2022/03/14 02:44:08;;;;;;;;;;;;;;;;;;5032371;28;19917;-57
2022/03/14 02:46:40;;;;;;;;;;;;;;;;;;5032615;28;19941;-56
2022/03/14 02:49:06;;;;;;;;;;;;;;;;;;5032849;28;19912;-56
2022/03/14 02:51:32;;;;;;;;;;;;;;;;;;5032556;28;19934;-56
2022/03/14 02:53:58;;;;;;;;;;;;;;;;;;5032501;28;19909;-57
2022/03/14 02:56:24;;;;;;;;;;;;;;;;;;5032479;28;19913;-56
2022/03/14 02:58:51;;;;;;;;;;;;;;;;;;5032472;28;19928;-55
2022/03/14 03:01:17;;;;;;;;;;;;;;;;;;5032828;28;19905;-54
2022/03/14 03:03:43;;;;;;;;;;;;;;;;;;5032423;28;20276;-56
2022/03/14 03:06:11;;;;;;;;;;;;;;;;;;5032387;28;19905;-56
2022/03/14 03:08:37;;;;;;;;;;;;;;;;;;5032620;28;19905;-55
2022/03/14 03:11:08;;;;;;;;;;;;;;;;;;5032742;28;19975;-56
2022/03/14 03:13:34;;;;;;;;;;;;;;;;;;5032677;28;19909;-55
2022/03/14 03:16:00;;;;;;;;;;;;;;;;;;5036163;28;19917;-55
2022/03/14 03:18:26;;;;;;;;;;;;;;;;;;5036138;28;20386;-55
2022/03/14 03:20:52;;;;;;;;;;;;;;;;;;5036333;28;19905;-56
2022/03/14 03:23:19;;;;;;;;;;;;;;;;;;5036044;28;19909;-54
2022/03/14 03:25:44;;;;;;;;;;;;;;;;;;5036391;28;19916;-56
2022/03/14 03:28:10;;;;;;;;;;;;;;;;;;5035925;28;19905;-55
2022/03/14 03:30:36;;;;;;;;;;;;;;;;;;5035915;28;19951;-56
2022/03/14 03:33:02;;;;;;;;;;;;;;;;;;5036140;28;20363;-56
2022/03/14 03:35:28;;;;;;;;;;;;;;;;;;5036036;28;19920;-56
2022/03/14 03:37:54;;;;;;;;;;;;;;;;;;5035799;28;19904;-55
2022/03/14 03:40:20;;;;;;;;;;;;;;;;;;5035705;28;20003;-56
2022/03/14 03:42:46;;;;;;;;;;;;;;;;;;5035743;28;19951;-55
2022/03/14 03:45:13;;;;;;;;;;;;;;;;;;5035541;28;19921;-56
2022/03/14 03:47:39;;;;;;;;;;;;;;;;;;5035601;28;19917;-56
2022/03/14 03:50:05;;;;;;;;;;;;;;;;;;5035623;28;20008;-56
2022/03/14 03:52:31;;;;;;;;;;;;;;;;;;5034245;28;20189;-56
2022/03/14 03:54:57;;;;;;;;;;;;;;;;;;5035696;28;19913;-56
2022/03/14 03:57:22;;;;;;;;;;;;;;;;;;5035442;28;20275;-55
2022/03/14 03:59:48;;;;;;;;;;;;;;;;;;5035395;28;19909;-56
2022/03/14 04:02:18;;;;;;;;;;;;;;;;;;5035394;28;20010;-56
2022/03/14 04:04:45;;;;;;;;;;;;;;;;;;5035337;28;19909;-56
2022/03/14 04:07:11;;;;;;;;;;;;;;;;;;5035625;28;19905;-55
2022/03/14 04:09:37;;;;;;;;;;;;;;;;;;5035440;28;19911;-55
2022/03/14 04:12:03;;;;;;;;;;;;;;;;;;5035179;28;19905;-56
2022/03/14 04:14:29;;;;;;;;;;;;;;;;;;5034992;28;19909;-54
2022/03/14 04:16:55;;;;;;;;;;;;;;;;;;5035123;28;20031;-56
2022/03/14 04:19:21;;;;;;;;;;;;;;;;;;5035334;28;19951;-56
2022/03/14 04:21:52;;;;;;;;;;;;;;;;;;5034982;28;19905;-55
2022/03/14 04:24:18;;;;;;;;;;;;;;;;;;5035038;28;19951;-53
2022/03/14 04:26:45;;;;;;;;;;;;;;;;;;5034748;28;19924;-55
2022/03/14 04:29:11;;;;;;;;;;;;;;;;;;5035175;28;19931;-54
2022/03/14 04:31:37;;;;;;;;;;;;;;;;;;5034790;28;19905;-55
2022/03/14 04:34:03;;;;;;;;;;;;;;;;;;5034757;28;20167;-56
2022/03/14 04:36:29;;;;;;;;;;;;;;;;;;5034743;28;19909;-55
2022/03/14 04:38:55;;;;;;;;;;;;;;;;;;5034743;28;20330;-56
2022/03/14 04:41:21;;;;;;;;;;;;;;;;;;5034673;28;19905;-56
2022/03/14 04:43:47;;;;;;;;;;;;;;;;;;5034350;28;19951;-55
2022/03/14 04:46:12;;;;;;;;;;;;;;;;;;5034568;28;19909;-55
2022/03/14 04:48:38;;;;;;;;;;;;;;;;;;5034452;28;19911;-56
2022/03/14 04:51:04;;;;;;;;;;;;;;;;;;5034707;28;19909;-56
2022/03/14 04:53:30;;;;;;;;;;;;;;;;;;5034451;28;19905;-56
2022/03/14 04:55:56;;;;;;;;;;;;;;;;;;5034289;28;19966;-55
2022/03/14 04:58:22;;;;;;;;;;;;;;;;;;5034639;28;19932;-55
2022/03/14 05:08:53;;;;;;;;;;;;;;;;;;5034178;28;19912;-52
2022/03/14 05:11:19;;;;;;;;;;;;;;;;;;5034037;28;19905;-53
2022/03/14 05:13:45;;;;;;;;;;;;;;;;;;5034564;28;20266;-52
2022/03/14 05:16:11;;;;;;;;;;;;;;;;;;5034246;28;19912;-53
2022/03/14 05:18:38;;;;;;;;;;;;;;;;;;5034006;28;19909;-52
2022/03/14 05:21:04;;;;;;;;;;;;;;;;;;5033981;28;19905;-52
2022/03/14 05:23:30;;;;;;;;;;;;;;;;;;5033866;28;19912;-52
2022/03/14 05:25:55;;;;;;;;;;;;;;;;;;5033748;28;19942;-51
2022/03/14 05:28:22;;;;;;;;;;;;;;;;;;5033766;28;19905;-52
2022/03/14 05:30:47;;;;;;;;;;;;;;;;;;5033738;28;19905;-53
2022/03/14 05:33:13;;;;;;;;;;;;;;;;;;5033665;28;19911;-53
2022/03/14 05:35:39;;;;;;;;;;;;;;;;;;5033489;28;19913;-51
2022/03/14 05:38:05;;;;;;;;;;;;;;;;;;5033126;28;19959;-53
2022/03/14 05:40:31;;;;;;;;;;;;;;;;;;5033492;28;19905;-54
2022/03/14 05:42:57;;;;;;;;;;;;;;;;;;5033464;28;19904;-52
2022/03/14 05:45:23;;;;;;;;;;;;;;;;;;5033470;28;19996;-55
2022/03/14 05:47:49;;;;;;;;;;;;;;;;;;5033393;28;19905;-53
2022/03/14 05:50:15;;;;;;;;;;;;;;;;;;5033243;28;20319;-53
2022/03/14 05:52:41;;;;;;;;;;;;;;;;;;5033567;28;19909;-54
2022/03/14 05:55:07;;;;;;;;;;;;;;;;;;5033199;28;20271;-54
2022/03/14 05:57:33;;;;;;;;;;;;;;;;;;5033244;28;19932;-55
2022/03/14 05:59:59;;;;;;;;;;;;;;;;;;5033427;28;20359;-53
2022/03/14 06:02:25;;;;;;;;;;;;;;;;;;5032924;28;20008;-52
2022/03/14 06:04:51;;;;;;;;;;;;;;;;;;5033109;28;19909;-51
2022/03/14 06:07:17;;;;;;;;;;;;;;;;;;5033116;28;20386;-52
2022/03/14 06:09:43;;;;;;;;;;;;;;;;;;5033055;28;20002;-51
2022/03/14 06:12:09;;;;;;;;;;;;;;;;;;5033018;28;20290;-52
2022/03/14 06:14:35;;;;;;;;;;;;;;;;;;5033216;28;19913;-52
2022/03/14 06:17:01;;;;;;;;;;;;;;;;;;5032962;28;20351;-51
2022/03/14 06:19:27;;;;;;;;;;;;;;;;;;5032967;28;19912;-53
2022/03/14 06:21:53;;;;;;;;;;;;;;;;;;5032877;28;20259;-53
2022/03/14 06:24:19;;;;;;;;;;;;;;;;;;5032735;28;20091;-52
2022/03/14 06:26:45;;;;;;;;;;;;;;;;;;5032776;28;19909;-52
2022/03/14 06:29:11;;;;;;;;;;;;;;;;;;5032914;28;19915;-52
2022/03/14 06:31:37;;;;;;;;;;;;;;;;;;5032788;28;19905;-52
2022/03/14 06:34:02;;;;;;;;;;;;;;;;;;5032698;28;19935;-58
2022/03/14 06:36:28;;;;;;;;;;;;;;;;;;5032667;28;19912;-58
2022/03/14 06:38:56;;;;;;;;;;;;;;;;;;5032682;28;19952;-57
2022/03/14 06:41:23;;;;;;;;;;;;;;;;;;5032590;28;20363;-57
2022/03/14 06:43:49;;;;;;;;;;;;;;;;;;5032655;28;19955;-57
2022/03/14 06:46:15;;;;;;;;;;;;;;;;;;5032516;28;19913;-58
2022/03/14 06:48:41;;;;;;;;;;;;;;;;;;5032590;28;20034;-58
2022/03/14 06:51:07;;;;;;;;;;;;;;;;;;5036735;28;19992;-58
2022/03/14 06:53:33;;;;;;;;;;;;;;;;;;5036530;28;20382;-57
2022/03/14 06:55:59;;;;;;;;;;;;;;;;;;5036517;28;20434;-57
2022/03/14 06:58:25;;;;;;;;;;;;;;;;;;5036459;28;19951;-57
2022/03/14 07:00:51;;;;;;;;;;;;;;;;;;5036506;28;19909;-57
2022/03/14 07:03:17;;;;;;;;;;;;;;;;;;5036226;28;19924;-57
2022/03/14 07:05:43;;;;;;;;;;;;;;;;;;5036451;28;19905;-56
2022/03/14 07:08:10;;;;;;;;;;;;;;;;;;5036472;28;19909;-57
2022/03/14 07:10:36;;;;;;;;;;;;;;;;;;5036288;28;19905;-57
2022/03/14 07:13:02;;;;;;;;;;;;;;;;;;5036407;28;20193;-57
2022/03/14 07:15:28;;;;;;;;;;;;;;;;;;5036476;28;20171;-57
2022/03/14 07:17:55;;;;;;;;;;;;;;;;;;5036255;28;20046;-57
2022/03/14 07:20:22;;;;;;;;;;;;;;;;;;5036146;28;19909;-57
2022/03/14 07:22:48;;;;;;;;;;;;;;;;;;5036379;28;19905;-58
2022/03/14 07:25:14;;;;;;;;;;;;;;;;;;5036058;28;19905;-57
2022/03/14 07:27:40;;;;;;;;;;;;;;;;;;5036016;28;19909;-57
2022/03/14 07:30:06;;;;;;;;;;;;;;;;;;5035973;28;20095;-57
2022/03/14 07:32:32;;;;;;;;;;;;;;;;;;5035662;28;19928;-56
2022/03/14 07:34:58;;;;;;;;;;;;;;;;;;5035813;28;20008;-57
2022/03/14 07:37:24;;;;;;;;;;;;;;;;;;5035786;28;19991;-57
2022/03/14 07:39:49;;;;;;;;;;;;;;;;;;5035775;28;19959;-53
2022/03/14 07:42:15;;;;;;;;;;;;;;;;;;5035769;28;19905;-55
2022/03/14 07:44:41;;;;;;;;;;;;;;;;;;5035681;28;19951;-55
2022/03/14 07:47:10;;;;;;;;;;;;;;;;;;5036040;28;19952;-57
2022/03/14 07:49:36;;;;;;;;;;;;;;;;;;5035622;28;19987;-56
2022/03/14 07:52:02;;;;;;;;;;;;;;;;;;5035643;28;19909;-56
2022/03/14 07:54:28;;;;;;;;;;;;;;;;;;5035427;28;19908;-57
2022/03/14 07:56:54;;;;;;;;;;;;;;;;;;5035464;28;19905;-55
2022/03/14 07:59:20;;;;;;;;;;;;;;;;;;5035283;28;20319;-58
2022/03/14 08:01:45;;;;;;;;;;;;;;;;;;5034630;28;19912;-56
2022/03/14 08:04:11;;;;;;;;;;;;;;;;;;5035301;28;19917;-56
2022/03/14 08:06:41;;;;;;;;;;;;;;;;;;5035173;28;20381;-56
2022/03/14 08:09:07;;;;;;;;;;;;;;;;;;5035455;28;19908;-54
2022/03/14 08:11:33;;;;;;;;;;;;;;;;;;5035193;28;19912;-57
2022/03/14 08:13:59;;;;;;;;;;;;;;;;;;5035104;28;20003;-55
2022/03/14 08:16:25;;;;;;;;;;;;;;;;;;5035117;28;19909;-56
2022/03/14 08:18:51;;;;;;;;;;;;;;;;;;5035031;28;19936;-57
2022/03/14 08:21:17;;;;;;;;;;;;;;;;;;5035036;28;19975;-56
2022/03/14 08:23:43;;;;;;;;;;;;;;;;;;5035079;28;19907;-57
2022/03/14 08:26:09;;;;;;;;;;;;;;;;;;5034927;28;19905;-56
2022/03/14 08:28:35;;;;;;;;;;;;;;;;;;5035144;28;20008;-57
2022/03/14 08:31:01;;;;;;;;;;;;;;;;;;5034890;28;19956;-55
2022/03/14 08:33:29;;;;;;;;;;;;;;;;;;5034837;28;19905;-55
2022/03/14 08:35:59;;;;;;;;;;;;;;;;;;5034734;28;19974;-57
2022/03/14 08:38:25;;;;;;;;;;;;;;;;;;5034439;28;20327;-57
2022/03/14 08:40:51;;;;;;;;;;;;;;;;;;5034709;28;20003;-57
2022/03/14 08:43:17;;;;;;;;;;;;;;;;;;5034962;28;19905;-56
2022/03/14 08:45:43;;;;;;;;;;;;;;;;;;5034477;28;20350;-57
2022/03/14 08:48:09;;;;;;;;;;;;;;;;;;5034468;28;20317;-57
2022/03/14 08:50:37;;;;;;;;;;;;;;;;;;5034208;28;19912;-57
2022/03/14 08:53:03;;;;;;;;;;;;;;;;;;5034582;28;19959;-57
2022/03/14 08:55:29;;;;;;;;;;;;;;;;;;5034252;28;19960;-57
2022/03/14 08:57:55;;;;;;;;;;;;;;;;;;5034236;28;20402;-57
2022/03/14 09:00:21;;;;;;;;;;;;;;;;;;5034223;28;19932;-58
2022/03/14 09:02:47;;;;;;;;;;;;;;;;;;5033882;28;19919;-50
2022/03/14 09:05:13;;;;;;;;;;;;;;;;;;5034389;28;20315;-49
2022/03/14 09:07:38;;;;;;;;;;;;;;;;;;5034118;28;19909;-50
2022/03/14 09:10:04;;;;;;;;;;;;;;;;;;5034021;28;19905;-51
2022/03/14 09:12:32;;;;;;;;;;;;;;;;;;5033091;28;19916;-52
2022/03/14 09:14:58;;;;;;;;;;;;;;;;;;5033752;28;20007;-54
2022/03/14 09:17:25;;;;;;;;;;;;;;;;;;5033955;28;19971;-51
2022/03/14 09:19:51;;;;;;;;;;;;;;;;;;5033849;28;19905;-55
2022/03/14 09:22:18;;;;;;;;;;;;;;;;;;5033776;28;20040;-57
2022/03/14 09:24:47;;;;;;;;;;;;;;;;;;5033721;28;19941;-57
2022/03/14 09:27:13;;;;;;;;;;;;;;;;;;5033818;28;19912;-56
2022/03/14 09:29:39;;;;;;;;;;;;;;;;;;5033635;28;19905;-56
2022/03/14 09:32:05;;;;;;;;;;;;;;;;;;5033941;28;20252;-57
2022/03/14 09:34:31;;;;;;;;;;;;;;;;;;5033856;28;19909;-54
2022/03/14 09:36:57;;;;;;;;;;;;;;;;;;5033514;28;19956;-50
2022/03/14 09:39:23;;;;;;;;;;;;;;;;;;5033238;28;19912;-50
2022/03/14 09:41:49;;;;;;;;;;;;;;;;;;5033370;28;19909;-51
2022/03/14 09:44:15;;;;;;;;;;;;;;;;;;5033666;28;19952;-51
2022/03/14 09:46:41;;;;;;;;;;;;;;;;;;5033612;28;19905;-51
2022/03/14 09:49:07;;;;;;;;;;;;;;;;;;5033550;28;19905;-51
2022/03/14 09:51:33;;;;;;;;;;;;;;;;;;5033537;28;19905;-50
2022/03/14 09:53:59;;;;;;;;;;;;;;;;;;5033423;28;19905;-51
2022/03/14 09:56:25;;;;;;;;;;;;;;;;;;5033209;28;20306;-50
2022/03/14 09:58:51;;;;;;;;;;;;;;;;;;5033111;28;19908;-50
2022/03/14 10:01:17;;;;;;;;;;;;;;;;;;5033005;28;19905;-51
2022/03/14 10:03:43;;;;;;;;;;;;;;;;;;5032813;28;19917;-55
2022/03/14 10:06:09;;;;;;;;;;;;;;;;;;5033019;28;19939;-54
2022/03/14 10:08:35;;;;;;;;;;;;;;;;;;5033053;28;20368;-56
2022/03/14 10:11:01;;;;;;;;;;;;;;;;;;5032983;28;19905;-56
2022/03/14 10:13:27;;;;;;;;;;;;;;;;;;5033029;28;19912;-54
2022/03/14 10:15:53;;;;;;;;;;;;;;;;;;5032795;28;19913;-56
2022/03/14 10:18:19;;;;;;;;;;;;;;;;;;5032794;28;19912;-55
2022/03/14 10:20:45;;;;;;;;;;;;;;;;;;5032883;28;20334;-53
2022/03/14 10:23:12;;;;;;;;;;;;;;;;;;5032503;28;19905;-51
2022/03/14 10:25:38;;;;;;;;;;;;;;;;;;5032757;28;19952;-54
2022/03/14 10:28:04;;;;;;;;;;;;;;;;;;5032582;28;19909;-55
2022/03/14 10:30:30;;;;;;;;;;;;;;;;;;5032509;28;19952;-56
2022/03/14 10:32:56;;;;;;;;;;;;;;;;;;5032670;28;19959;-55
2022/03/14 10:35:22;;;;;;;;;;;;;;;;;;5032668;28;19919;-56
2022/03/14 10:37:48;;;;;;;;;;;;;;;;;;5032998;28;19959;-56
2022/03/14 10:40:14;;;;;;;;;;;;;;;;;;5032744;28;20363;-56
2022/03/14 10:42:40;;;;;;;;;;;;;;;;;;5032701;28;19909;-56
2022/03/14 10:45:06;;;;;;;;;;;;;;;;;;5032738;28;19955;-54
2022/03/14 10:47:32;;;;;;;;;;;;;;;;;;5032579;28;19905;-55
2022/03/14 10:49:58;;;;;;;;;;;;;;;;;;5032683;28;20019;-55
2022/03/14 10:52:24;;;;;;;;;;;;;;;;;;5032505;28;19905;-53
2022/03/14 10:54:49;;;;;;;;;;;;;;;;;;5032441;28;19913;-55
2022/03/14 10:57:15;;;;;;;;;;;;;;;;;;5032511;28;19959;-52
2022/03/14 10:59:41;;;;;;;;;;;;;;;;;;5032837;28;20004;-52
2022/03/14 11:02:07;;;;;;;;;;;;;;;;;;5032397;28;19913;-53
2022/03/14 11:04:33;;;;;;;;;;;;;;;;;;5032528;28;20355;-55
2022/03/14 11:06:59;;;;;;;;;;;;;;;;;;5032423;28;19905;-54
2022/03/14 11:09:25;;;;;;;;;;;;;;;;;;5032435;28;19905;-53
2022/03/14 11:11:50;;;;;;;;;;;;;;;;;;5032370;28;20379;-52
2022/03/14 11:14:16;;;;;;;;;;;;;;;;;;5032041;28;20003;-53
2022/03/14 11:16:42;;;;;;;;;;;;;;;;;;5031991;28;19912;-53
2022/03/14 11:19:09;;;;;;;;;;;;;;;;;;5032049;28;20486;-52
2022/03/14 11:21:36;;;;;;;;;;;;;;;;;;5032280;28;19905;-53
2022/03/14 11:24:02;;;;;;;;;;;;;;;;;;5032059;28;19971;-54
2022/03/14 11:26:28;;;;;;;;;;;;;;;;;;5031963;28;19933;-53
2022/03/14 11:28:57;;;;;;;;;;;;;;;;;;5032049;28;19916;-52
2022/03/14 11:31:23;;;;;;;;;;;;;;;;;;5031825;28;19976;-53
2022/03/14 11:33:49;;;;;;;;;;;;;;;;;;5031855;28;19921;-53
2022/03/14 11:36:14;;;;;;;;;;;;;;;;;;5034069;28;20390;-55
2022/03/14 11:38:41;;;;;;;;;;;;;;;;;;5035540;28;19909;-55
2022/03/14 11:41:06;;;;;;;;;;;;;;;;;;5036021;28;19909;-53
2022/03/14 11:43:32;;;;;;;;;;;;;;;;;;5035591;28;19959;-55
2022/03/14 11:45:58;;;;;;;;;;;;;;;;;;5035740;28;19999;-53
2022/03/14 11:48:24;;;;;;;;;;;;;;;;;;5035536;28;19927;-53
2022/03/14 11:50:50;;;;;;;;;;;;;;;;;;5035450;28;19905;-53
2022/03/14 11:53:16;;;;;;;;;;;;;;;;;;5035502;28;19913;-54
2022/03/14 11:55:42;;;;;;;;;;;;;;;;;;5035393;28;20016;-56
2022/03/14 11:58:08;;;;;;;;;;;;;;;;;;5035349;28;19905;-55
2022/03/14 12:00:35;;;;;;;;;;;;;;;;;;5035321;28;19959;-56
2022/03/14 12:03:01;;;;;;;;;;;;;;;;;;5035264;28;19921;-55
2022/03/14 12:05:27;;;;;;;;;;;;;;;;;;5035623;28;19912;-56
2022/03/14 12:07:53;;;;;;;;;;;;;;;;;;5035201;28;19957;-51
2022/03/14 12:10:19;;;;;;;;;;;;;;;;;;5035161;28;19905;-53
2022/03/14 12:12:45;;;;;;;;;;;;;;;;;;5035388;28;19912;-52
2022/03/14 12:15:11;;;;;;;;;;;;;;;;;;5035035;28;19913;-51
2022/03/14 12:17:38;;;;;;;;;;;;;;;;;;5034996;28;19905;-50
2022/03/14 12:20:04;;;;;;;;;;;;;;;;;;5035228;28;19915;-50
2022/03/14 12:22:30;;;;;;;;;;;;;;;;;;5034852;28;20000;-51
2022/03/14 12:24:56;;;;;;;;;;;;;;;;;;5034691;28;19905;-57
2022/03/14 12:27:22;;;;;;;;;;;;;;;;;;5034904;28;20363;-57
2022/03/14 12:29:48;;;;;;;;;;;;;;;;;;5035065;28;19912;-56
2022/03/14 12:32:14;;;;;;;;;;;;;;;;;;5034864;28;19941;-57
2022/03/14 12:34:40;;;;;;;;;;;;;;;;;;5034703;28;20374;-57
2022/03/14 12:37:06;;;;;;;;;;;;;;;;;;5034978;28;19912;-55
2022/03/14 12:39:32;;;;;;;;;;;;;;;;;;5034720;28;19991;-56
2022/03/14 12:41:59;;;;;;;;;;;;;;;;;;5034753;28;20395;-49
2022/03/14 12:44:25;;;;;;;;;;;;;;;;;;5034675;28;19912;-51
2022/03/14 12:46:51;;;;;;;;;;;;;;;;;;5034507;28;20311;-49
2022/03/14 12:49:17;;;;;;;;;;;;;;;;;;5034561;28;19972;-50
2022/03/14 12:51:43;;;;;;;;;;;;;;;;;;5034479;28;19967;-50
2022/03/14 12:54:09;;;;;;;;;;;;;;;;;;5034350;28;19941;-52
2022/03/14 12:56:35;;;;;;;;;;;;;;;;;;5034386;28;19928;-50
2022/03/14 12:59:01;;;;;;;;;;;;;;;;;;5034373;28;19913;-51
2022/03/14 13:01:27;;;;;;;;;;;;;;;;;;5034246;28;19911;-50
2022/03/14 13:03:52;;;;;;;;;;;;;;;;;;5034157;28;20310;-51
2022/03/14 13:06:18;;;;;;;;;;;;;;;;;;5034208;28;19905;-51
2022/03/14 13:08:45;;;;;;;;;;;;;;;;;;5034196;28;19911;-54
2022/03/14 13:11:10;;;;;;;;;;;;;;;;;;5034167;28;19909;-50
2022/03/14 13:13:36;;;;;;;;;;;;;;;;;;5034065;28;19927;-53
2022/03/14 13:16:02;;;;;;;;;;;;;;;;;;5034181;28;19913;-52
2022/03/14 13:18:28;;;;;;;;;;;;;;;;;;5034158;28;20421;-50
2022/03/14 13:20:54;;;;;;;;;;;;;;;;;;5033743;28;19994;-54
2022/03/14 13:23:20;;;;;;;;;;;;;;;;;;5033883;28;20390;-54
2022/03/14 13:25:46;;;;;;;;;;;;;;;;;;5033794;28;19996;-51
2022/03/14 13:28:12;;;;;;;;;;;;;;;;;;5034100;28;19999;-53
2022/03/14 13:30:38;;;;;;;;;;;;;;;;;;5032495;28;19905;-52
2022/03/14 13:33:04;;;;;;;;;;;;;;;;;;5033644;28;19937;-51
2022/03/14 13:35:30;;;;;;;;;;;;;;;;;;5033653;28;19956;-53
2022/03/14 13:37:56;;;;;;;;;;;;;;;;;;5033688;28;19905;-57
2022/03/14 13:40:22;;;;;;;;;;;;;;;;;;5033513;28;19952;-56
2022/03/14 13:42:48;;;;;;;;;;;;;;;;;;5033576;28;19909;-56
2022/03/14 13:45:15;;;;;;;;;;;;;;;;;;5033745;28;20003;-56
2022/03/14 13:47:41;;;;;;;;;;;;;;;;;;5033362;28;19908;-57
2022/03/14 13:50:07;;;;;;;;;;;;;;;;;;5033418;28;19905;-54
2022/03/14 13:52:33;;;;;;;;;;;;;;;;;;5033331;28;19912;-56
2022/03/14 13:54:59;;;;;;;;;;;;;;;;;;5033285;28;19915;-52
2022/03/14 13:57:25;;;;;;;;;;;;;;;;;;5033072;28;20276;-50
2022/03/14 13:59:54;;;;;;;;;;;;;;;;;;5032968;28;20440;-54
2022/03/14 14:02:20;;;;;;;;;;;;;;;;;;5032884;28;19924;-52
2022/03/14 14:04:46;;;;;;;;;;;;;;;;;;5033214;28;19966;-52
2022/03/14 14:07:12;;;;;;;;;;;;;;;;;;5033070;28;19996;-51
2022/03/14 14:09:38;;;;;;;;;;;;;;;;;;5033066;28;19905;-52
2022/03/14 14:12:05;;;;;;;;;;;;;;;;;;5033017;28;19912;-52
2022/03/14 14:14:31;;;;;;;;;;;;;;;;;;5032954;28;19913;-51
2022/03/14 14:16:57;;;;;;;;;;;;;;;;;;5032874;28;19962;-52
2022/03/14 14:19:24;;;;;;;;;;;;;;;;;;5032669;28;20427;-51
2022/03/14 14:21:50;;;;;;;;;;;;;;;;;;5033150;28;19909;-54
2022/03/14 14:24:16;;;;;;;;;;;;;;;;;;5032819;28;19905;-52
2022/03/14 14:26:42;;;;;;;;;;;;;;;;;;5032832;28;20003;-53
2022/03/14 14:29:08;;;;;;;;;;;;;;;;;;5033093;28;19905;-52
2022/03/14 14:31:34;;;;;;;;;;;;;;;;;;5032837;28;19905;-52
2022/03/14 14:34:00;;;;;;;;;;;;;;;;;;5032843;28;19971;-52
2022/03/14 14:36:26;;;;;;;;;;;;;;;;;;5033023;28;19983;-52
2022/03/14 14:38:52;;;;;;;;;;;;;;;;;;5032763;28;19912;-52
2022/03/14 14:41:18;;;;;;;;;;;;;;;;;;5032692;28;19905;-54
2022/03/14 14:43:45;;;;;;;;;;;;;;;;;;5032687;28;19993;-53
2022/03/14 14:46:11;;;;;;;;;;;;;;;;;;5032668;28;19912;-53
2022/03/14 14:48:37;;;;;;;;;;;;;;;;;;5032372;28;20410;-53
2022/03/14 14:51:03;;;;;;;;;;;;;;;;;;5032115;28;19951;-51
2022/03/14 14:53:29;;;;;;;;;;;;;;;;;;5032498;28;19905;-51
2022/03/14 14:55:55;;;;;;;;;;;;;;;;;;5032456;28;19913;-51
2022/03/14 14:58:24;;;;;;;;;;;;;;;;;;5032711;28;19909;-51
2022/03/14 15:00:50;;;;;;;;;;;;;;;;;;5032475;28;20367;-51
2022/03/14 15:03:16;;;;;;;;;;;;;;;;;;5032072;28;20011;-52
2022/03/14 15:05:42;;;;;;;;;;;;;;;;;;5032463;28;19913;-50
2022/03/14 15:08:08;;;;;;;;;;;;;;;;;;5032432;28;19920;-53
2022/03/14 15:10:34;;;;;;;;;;;;;;;;;;5034222;28;19909;-50
2022/03/14 15:13:00;;;;;;;;;;;;;;;;;;5036326;28;19909;-50
2022/03/14 15:15:26;;;;;;;;;;;;;;;;;;5034824;28;19960;-51
2022/03/14 15:17:52;;;;;;;;;;;;;;;;;;5036285;28;19912;-50
2022/03/14 15:20:18;;;;;;;;;;;;;;;;;;5036107;28;19905;-50
2022/03/14 15:22:43;;;;;;;;;;;;;;;;;;5036132;28;19911;-53
2022/03/14 15:25:10;;;;;;;;;;;;;;;;;;5036118;28;19912;-51
2022/03/14 15:27:36;;;;;;;;;;;;;;;;;;5036339;28;19953;-54
2022/03/14 15:30:02;;;;;;;;;;;;;;;;;;5036193;28;19912;-56
2022/03/14 15:32:28;;;;;;;;;;;;;;;;;;5036044;28;19928;-57
2022/03/14 15:34:54;;;;;;;;;;;;;;;;;;5035770;28;20367;-54
2022/03/14 15:37:20;;;;;;;;;;;;;;;;;;5035839;28;19908;-57
2022/03/14 15:39:47;;;;;;;;;;;;;;;;;;5035598;28;19905;-54
2022/03/14 15:42:14;;;;;;;;;;;;;;;;;;5035532;28;19928;-58
2022/03/14 15:44:40;;;;;;;;;;;;;;;;;;5035661;28;20092;-57
2022/03/14 15:47:06;;;;;;;;;;;;;;;;;;5035318;28;20414;-57
2022/03/14 15:49:32;;;;;;;;;;;;;;;;;;5035171;28;19906;-55
2022/03/14 15:51:58;;;;;;;;;;;;;;;;;;5035200;28;20397;-57
2022/03/14 15:54:25;;;;;;;;;;;;;;;;;;5035342;28;19959;-57
2022/03/14 15:56:51;;;;;;;;;;;;;;;;;;5035212;28;19908;-54
2022/03/14 15:59:17;;;;;;;;;;;;;;;;;;5035146;28;19905;-57
2022/03/14 16:01:43;;;;;;;;;;;;;;;;;;5035203;28;19905;-57
2022/03/14 16:04:09;;;;;;;;;;;;;;;;;;5035257;28;20382;-56
2022/03/14 16:06:35;;;;;;;;;;;;;;;;;;5035018;28;19905;-57
2022/03/14 16:09:01;;;;;;;;;;;;;;;;;;5035086;28;20059;-54
2022/03/14 16:11:27;;;;;;;;;;;;;;;;;;5035052;28;20379;-56
2022/03/14 16:13:53;;;;;;;;;;;;;;;;;;5035023;28;19905;-56
2022/03/14 16:16:18;;;;;;;;;;;;;;;;;;5034850;28;19963;-56
2022/03/14 16:18:45;;;;;;;;;;;;;;;;;;5034839;28;19911;-57
2022/03/14 16:21:11;;;;;;;;;;;;;;;;;;5034421;28;19972;-55
2022/03/14 16:23:37;;;;;;;;;;;;;;;;;;5034553;28;20371;-56
2022/03/14 16:26:03;;;;;;;;;;;;;;;;;;5034523;28;20278;-56
2022/03/14 16:28:29;;;;;;;;;;;;;;;;;;5034515;28;19911;-56
2022/03/14 16:30:55;;;;;;;;;;;;;;;;;;5034501;28;19905;-56
2022/03/14 16:33:21;;;;;;;;;;;;;;;;;;5034599;28;19905;-57
2022/03/14 16:35:47;;;;;;;;;;;;;;;;;;5034441;28;19913;-56
2022/03/14 16:38:13;;;;;;;;;;;;;;;;;;5034534;28;19905;-55
2022/03/14 16:40:39;;;;;;;;;;;;;;;;;;5034510;28;20394;-56
2022/03/14 16:43:07;;;;;;;;;;;;;;;;;;5034431;28;19912;-55
2022/03/14 16:45:32;;;;;;;;;;;;;;;;;;5034507;28;19951;-56